sensor_id;sensor_type;location;lat;lon;timestamp;temperature;humidity
33067;DHT22;19428;49.024;8.366;2022-09-24T00:01:48;11.90;99.90
33067;DHT22;19428;49.024;8.366;2022-09-24T00:04:15;12.00;99.90
33067;DHT22;19428;49.024;8.366;2022-09-24T00:06:42;12.00;99.90
33067;DHT22;19428;49.024;8.366;2022-09-24T00:09:10;11.90;99.90
33067;DHT22;19428;49.024;8.366;2022-09-24T00:11:36;11.90;99.90
33067;DHT22;19428;49.024;8.366;2022-09-24T00:14:02;11.80;99.90
33067;DHT22;19428;49.024;8.366;2022-09-24T00:16:29;11.90;99.90
33067;DHT22;19428;49.024;8.366;2022-09-24T00:18:57;11.90;99.90
33067;DHT22;19428;49.024;8.366;2022-09-24T00:21:34;12.00;99.90
33067;DHT22;19428;49.024;8.366;2022-09-24T00:24:03;12.00;99.90
33067;DHT22;19428;49.024;8.366;2022-09-24T00:26:29;12.00;99.90
33067;DHT22;19428;49.024;8.366;2022-09-24T00:29:19;11.90;99.90
33067;DHT22;19428;49.024;8.366;2022-09-24T00:31:45;11.90;99.90
33067;DHT22;19428;49.024;8.366;2022-09-24T00:34:11;11.90;99.90
33067;DHT22;19428;49.024;8.366;2022-09-24T00:36:36;11.90;99.90
33067;DHT22;19428;49.024;8.366;2022-09-24T00:39:03;11.80;99.90
33067;DHT22;19428;49.024;8.366;2022-09-24T00:41:31;11.80;99.90
33067;DHT22;19428;49.024;8.366;2022-09-24T00:43:58;11.70;99.90
33067;DHT22;19428;49.024;8.366;2022-09-24T00:46:40;11.70;99.90
33067;DHT22;19428;49.024;8.366;2022-09-24T00:49:13;11.80;99.90
33067;DHT22;19428;49.024;8.366;2022-09-24T00:51:40;11.80;99.90
33067;DHT22;19428;49.024;8.366;2022-09-24T00:54:13;11.70;99.90
33067;DHT22;19428;49.024;8.366;2022-09-24T00:56:42;11.60;99.90
33067;DHT22;19428;49.024;8.366;2022-09-24T00:59:11;11.50;99.90
33067;DHT22;19428;49.024;8.366;2022-09-24T01:01:37;11.60;99.90
33067;DHT22;19428;49.024;8.366;2022-09-24T01:04:03;11.70;99.90
33067;DHT22;19428;49.024;8.366;2022-09-24T01:06:30;11.50;99.90
33067;DHT22;19428;49.024;8.366;2022-09-24T01:08:57;11.40;99.90
33067;DHT22;19428;49.024;8.366;2022-09-24T01:11:44;11.40;99.90
33067;DHT22;19428;49.024;8.366;2022-09-24T01:23:06;11.00;99.90
33067;DHT22;19428;49.024;8.366;2022-09-24T01:26:15;11.00;99.90
33067;DHT22;19428;49.024;8.366;2022-09-24T01:32:35;11.00;99.90
33067;DHT22;19428;49.024;8.366;2022-09-24T01:37:55;11.50;99.90
33067;DHT22;19428;49.024;8.366;2022-09-24T01:40:24;11.40;99.90
33067;DHT22;19428;49.024;8.366;2022-09-24T01:42:52;11.00;99.90
33067;DHT22;19428;49.024;8.366;2022-09-24T01:45:19;10.90;99.90
33067;DHT22;19428;49.024;8.366;2022-09-24T01:47:45;10.90;99.90
33067;DHT22;19428;49.024;8.366;2022-09-24T01:50:14;10.90;99.90
33067;DHT22;19428;49.024;8.366;2022-09-24T01:52:49;11.00;99.90
33067;DHT22;19428;49.024;8.366;2022-09-24T01:55:20;10.90;99.90
33067;DHT22;19428;49.024;8.366;2022-09-24T01:57:53;10.90;99.90
33067;DHT22;19428;49.024;8.366;2022-09-24T02:00:20;11.00;99.90
33067;DHT22;19428;49.024;8.366;2022-09-24T02:03:11;11.10;99.90
33067;DHT22;19428;49.024;8.366;2022-09-24T02:06:02;11.30;99.90
33067;DHT22;19428;49.024;8.366;2022-09-24T02:08:37;11.20;99.90
33067;DHT22;19428;49.024;8.366;2022-09-24T02:11:10;11.00;99.90
33067;DHT22;19428;49.024;8.366;2022-09-24T02:13:58;10.90;99.90
33067;DHT22;19428;49.024;8.366;2022-09-24T02:16:32;10.90;99.90
33067;DHT22;19428;49.024;8.366;2022-09-24T02:19:02;10.90;99.90
33067;DHT22;19428;49.024;8.366;2022-09-24T02:21:31;10.90;99.90
33067;DHT22;19428;49.024;8.366;2022-09-24T02:24:12;10.90;99.90
33067;DHT22;19428;49.024;8.366;2022-09-24T02:26:38;10.90;99.90
33067;DHT22;19428;49.024;8.366;2022-09-24T02:29:04;10.90;99.90
33067;DHT22;19428;49.024;8.366;2022-09-24T02:31:36;11.00;99.90
33067;DHT22;19428;49.024;8.366;2022-09-24T02:34:08;11.00;99.90
33067;DHT22;19428;49.024;8.366;2022-09-24T02:36:53;11.00;99.90
33067;DHT22;19428;49.024;8.366;2022-09-24T02:39:20;11.00;99.90
33067;DHT22;19428;49.024;8.366;2022-09-24T02:41:47;11.00;99.90
33067;DHT22;19428;49.024;8.366;2022-09-24T02:44:17;10.90;99.90
33067;DHT22;19428;49.024;8.366;2022-09-24T02:46:44;11.00;99.90
33067;DHT22;19428;49.024;8.366;2022-09-24T02:49:11;11.00;99.90
33067;DHT22;19428;49.024;8.366;2022-09-24T02:51:37;11.00;99.90
33067;DHT22;19428;49.024;8.366;2022-09-24T02:54:03;11.00;99.90
33067;DHT22;19428;49.024;8.366;2022-09-24T02:56:29;11.00;99.90
33067;DHT22;19428;49.024;8.366;2022-09-24T02:58:55;11.00;99.90
33067;DHT22;19428;49.024;8.366;2022-09-24T03:01:21;10.90;99.90
33067;DHT22;19428;49.024;8.366;2022-09-24T03:03:47;10.90;99.90
33067;DHT22;19428;49.024;8.366;2022-09-24T03:06:13;10.90;99.90
33067;DHT22;19428;49.024;8.366;2022-09-24T03:08:42;10.90;99.90
33067;DHT22;19428;49.024;8.366;2022-09-24T03:11:09;10.90;99.90
33067;DHT22;19428;49.024;8.366;2022-09-24T03:13:36;10.90;99.90
33067;DHT22;19428;49.024;8.366;2022-09-24T03:16:03;11.00;99.90
33067;DHT22;19428;49.024;8.366;2022-09-24T03:18:28;10.90;99.90
33067;DHT22;19428;49.024;8.366;2022-09-24T03:21:03;10.90;99.90
33067;DHT22;19428;49.024;8.366;2022-09-24T03:23:29;10.90;99.90
33067;DHT22;19428;49.024;8.366;2022-09-24T03:25:54;11.10;99.90
33067;DHT22;19428;49.024;8.366;2022-09-24T03:28:21;11.30;99.90
33067;DHT22;19428;49.024;8.366;2022-09-24T03:30:46;11.30;99.90
33067;DHT22;19428;49.024;8.366;2022-09-24T03:33:31;11.30;99.90
33067;DHT22;19428;49.024;8.366;2022-09-24T03:36:12;11.30;99.90
33067;DHT22;19428;49.024;8.366;2022-09-24T03:38:40;11.40;99.90
33067;DHT22;19428;49.024;8.366;2022-09-24T03:41:07;11.40;99.90
33067;DHT22;19428;49.024;8.366;2022-09-24T03:43:33;11.30;99.90
33067;DHT22;19428;49.024;8.366;2022-09-24T03:45:59;11.10;99.90
33067;DHT22;19428;49.024;8.366;2022-09-24T03:48:25;11.00;99.90
33067;DHT22;19428;49.024;8.366;2022-09-24T03:50:52;10.80;99.90
33067;DHT22;19428;49.024;8.366;2022-09-24T03:53:17;10.90;99.90
33067;DHT22;19428;49.024;8.366;2022-09-24T03:55:44;11.20;99.90
33067;DHT22;19428;49.024;8.366;2022-09-24T03:58:11;11.30;99.90
33067;DHT22;19428;49.024;8.366;2022-09-24T04:00:37;10.90;99.90
33067;DHT22;19428;49.024;8.366;2022-09-24T04:03:03;10.60;99.90
33067;DHT22;19428;49.024;8.366;2022-09-24T04:05:29;10.70;99.90
33067;DHT22;19428;49.024;8.366;2022-09-24T04:07:55;10.70;99.90
33067;DHT22;19428;49.024;8.366;2022-09-24T04:10:21;10.70;99.90
33067;DHT22;19428;49.024;8.366;2022-09-24T04:12:49;10.50;99.90
33067;DHT22;19428;49.024;8.366;2022-09-24T04:15:14;10.60;99.90
33067;DHT22;19428;49.024;8.366;2022-09-24T04:17:55;10.80;99.90
33067;DHT22;19428;49.024;8.366;2022-09-24T04:20:26;11.20;99.90
33067;DHT22;19428;49.024;8.366;2022-09-24T04:22:53;11.10;99.90
33067;DHT22;19428;49.024;8.366;2022-09-24T04:25:21;10.90;99.90
33067;DHT22;19428;49.024;8.366;2022-09-24T04:27:55;10.80;99.90
33067;DHT22;19428;49.024;8.366;2022-09-24T04:30:22;10.80;99.90
33067;DHT22;19428;49.024;8.366;2022-09-24T04:32:48;11.20;99.90
33067;DHT22;19428;49.024;8.366;2022-09-24T04:35:16;11.30;99.90
33067;DHT22;19428;49.024;8.366;2022-09-24T04:37:44;11.10;99.90
33067;DHT22;19428;49.024;8.366;2022-09-24T04:40:10;10.90;99.90
33067;DHT22;19428;49.024;8.366;2022-09-24T04:42:38;10.90;99.90
33067;DHT22;19428;49.024;8.366;2022-09-24T04:45:05;10.80;99.90
33067;DHT22;19428;49.024;8.366;2022-09-24T04:47:32;10.80;99.90
33067;DHT22;19428;49.024;8.366;2022-09-24T04:49:58;10.80;99.90
33067;DHT22;19428;49.024;8.366;2022-09-24T04:52:26;10.90;99.90
33067;DHT22;19428;49.024;8.366;2022-09-24T04:54:54;10.90;99.90
33067;DHT22;19428;49.024;8.366;2022-09-24T04:57:22;11.00;99.90
33067;DHT22;19428;49.024;8.366;2022-09-24T04:59:47;11.10;99.90
33067;DHT22;19428;49.024;8.366;2022-09-24T05:02:13;10.90;99.90
33067;DHT22;19428;49.024;8.366;2022-09-24T05:04:38;11.10;99.90
33067;DHT22;19428;49.024;8.366;2022-09-24T05:07:04;11.10;99.90
33067;DHT22;19428;49.024;8.366;2022-09-24T05:09:30;11.00;99.90
33067;DHT22;19428;49.024;8.366;2022-09-24T05:11:57;11.10;99.90
33067;DHT22;19428;49.024;8.366;2022-09-24T05:14:23;11.00;99.90
33067;DHT22;19428;49.024;8.366;2022-09-24T05:16:48;11.10;99.90
33067;DHT22;19428;49.024;8.366;2022-09-24T05:19:16;11.00;99.90
33067;DHT22;19428;49.024;8.366;2022-09-24T05:21:42;10.90;99.90
33067;DHT22;19428;49.024;8.366;2022-09-24T05:24:07;10.80;99.90
33067;DHT22;19428;49.024;8.366;2022-09-24T05:26:33;10.60;99.90
33067;DHT22;19428;49.024;8.366;2022-09-24T05:29:17;10.70;99.90
33067;DHT22;19428;49.024;8.366;2022-09-24T05:31:43;10.70;99.90
33067;DHT22;19428;49.024;8.366;2022-09-24T05:34:09;10.90;99.90
33067;DHT22;19428;49.024;8.366;2022-09-24T05:36:34;10.90;99.90
33067;DHT22;19428;49.024;8.366;2022-09-24T05:39:00;11.00;99.90
33067;DHT22;19428;49.024;8.366;2022-09-24T05:41:26;10.90;99.90
33067;DHT22;19428;49.024;8.366;2022-09-24T05:43:51;10.90;99.90
33067;DHT22;19428;49.024;8.366;2022-09-24T05:46:17;11.00;99.90
33067;DHT22;19428;49.024;8.366;2022-09-24T05:48:43;11.00;99.90
33067;DHT22;19428;49.024;8.366;2022-09-24T05:51:08;11.00;99.90
33067;DHT22;19428;49.024;8.366;2022-09-24T05:53:34;10.90;99.90
33067;DHT22;19428;49.024;8.366;2022-09-24T05:56:00;11.00;99.90
33067;DHT22;19428;49.024;8.366;2022-09-24T05:58:25;11.00;99.90
33067;DHT22;19428;49.024;8.366;2022-09-24T06:00:51;11.10;99.90
33067;DHT22;19428;49.024;8.366;2022-09-24T06:03:18;11.10;99.90
33067;DHT22;19428;49.024;8.366;2022-09-24T06:05:48;11.30;99.90
33067;DHT22;19428;49.024;8.366;2022-09-24T06:08:15;11.40;99.90
33067;DHT22;19428;49.024;8.366;2022-09-24T06:10:42;11.40;99.90
33067;DHT22;19428;49.024;8.366;2022-09-24T06:13:09;11.40;99.90
33067;DHT22;19428;49.024;8.366;2022-09-24T06:15:37;11.40;99.90
33067;DHT22;19428;49.024;8.366;2022-09-24T06:18:03;11.60;99.90
33067;DHT22;19428;49.024;8.366;2022-09-24T06:20:28;11.70;99.90
33067;DHT22;19428;49.024;8.366;2022-09-24T06:22:55;11.80;99.90
33067;DHT22;19428;49.024;8.366;2022-09-24T06:25:23;11.90;99.90
33067;DHT22;19428;49.024;8.366;2022-09-24T06:27:53;11.90;99.90
33067;DHT22;19428;49.024;8.366;2022-09-24T06:30:46;12.00;99.90
33067;DHT22;19428;49.024;8.366;2022-09-24T06:33:12;12.10;99.90
33067;DHT22;19428;49.024;8.366;2022-09-24T06:35:40;12.10;99.90
33067;DHT22;19428;49.024;8.366;2022-09-24T06:38:09;12.20;99.90
33067;DHT22;19428;49.024;8.366;2022-09-24T06:40:35;12.10;99.90
33067;DHT22;19428;49.024;8.366;2022-09-24T06:43:01;12.30;99.90
33067;DHT22;19428;49.024;8.366;2022-09-24T06:45:26;12.30;99.90
33067;DHT22;19428;49.024;8.366;2022-09-24T06:48:00;12.20;99.90
33067;DHT22;19428;49.024;8.366;2022-09-24T06:50:28;12.30;99.90
33067;DHT22;19428;49.024;8.366;2022-09-24T06:52:55;12.40;99.90
33067;DHT22;19428;49.024;8.366;2022-09-24T06:55:21;12.30;99.90
33067;DHT22;19428;49.024;8.366;2022-09-24T06:57:46;12.20;99.90
33067;DHT22;19428;49.024;8.366;2022-09-24T07:00:13;12.30;99.90
33067;DHT22;19428;49.024;8.366;2022-09-24T07:02:40;12.30;99.90
33067;DHT22;19428;49.024;8.366;2022-09-24T07:05:06;12.20;99.90
33067;DHT22;19428;49.024;8.366;2022-09-24T07:07:32;12.40;99.90
33067;DHT22;19428;49.024;8.366;2022-09-24T07:10:03;12.50;99.90
33067;DHT22;19428;49.024;8.366;2022-09-24T07:12:31;12.60;99.90
33067;DHT22;19428;49.024;8.366;2022-09-24T07:14:57;12.60;99.90
33067;DHT22;19428;49.024;8.366;2022-09-24T07:17:24;12.60;99.90
33067;DHT22;19428;49.024;8.366;2022-09-24T07:19:49;12.80;99.90
33067;DHT22;19428;49.024;8.366;2022-09-24T07:22:15;12.80;99.90
33067;DHT22;19428;49.024;8.366;2022-09-24T07:24:41;12.90;99.90
33067;DHT22;19428;49.024;8.366;2022-09-24T07:27:06;12.80;99.90
33067;DHT22;19428;49.024;8.366;2022-09-24T07:29:33;12.90;99.90
33067;DHT22;19428;49.024;8.366;2022-09-24T07:31:59;13.20;99.90
33067;DHT22;19428;49.024;8.366;2022-09-24T07:34:24;13.40;99.90
33067;DHT22;19428;49.024;8.366;2022-09-24T07:36:50;13.50;99.90
33067;DHT22;19428;49.024;8.366;2022-09-24T07:39:15;13.60;99.90
33067;DHT22;19428;49.024;8.366;2022-09-24T07:41:41;13.50;99.90
33067;DHT22;19428;49.024;8.366;2022-09-24T07:44:08;13.50;99.90
33067;DHT22;19428;49.024;8.366;2022-09-24T07:46:34;13.40;99.90
33067;DHT22;19428;49.024;8.366;2022-09-24T07:49:00;13.30;99.90
33067;DHT22;19428;49.024;8.366;2022-09-24T07:51:26;13.40;99.90
33067;DHT22;19428;49.024;8.366;2022-09-24T07:53:55;13.40;99.90
33067;DHT22;19428;49.024;8.366;2022-09-24T07:56:22;13.50;99.90
33067;DHT22;19428;49.024;8.366;2022-09-24T07:58:51;13.60;99.90
33067;DHT22;19428;49.024;8.366;2022-09-24T08:01:18;13.60;99.90
33067;DHT22;19428;49.024;8.366;2022-09-24T08:03:44;13.80;99.90
33067;DHT22;19428;49.024;8.366;2022-09-24T08:06:12;13.80;99.90
33067;DHT22;19428;49.024;8.366;2022-09-24T08:08:38;13.90;99.90
33067;DHT22;19428;49.024;8.366;2022-09-24T08:11:05;14.10;99.90
33067;DHT22;19428;49.024;8.366;2022-09-24T08:13:31;14.20;99.90
33067;DHT22;19428;49.024;8.366;2022-09-24T08:15:58;14.30;99.90
33067;DHT22;19428;49.024;8.366;2022-09-24T08:18:24;14.40;99.90
33067;DHT22;19428;49.024;8.366;2022-09-24T08:20:50;14.50;99.90
33067;DHT22;19428;49.024;8.366;2022-09-24T08:23:15;14.70;99.90
33067;DHT22;19428;49.024;8.366;2022-09-24T08:25:41;14.50;99.90
33067;DHT22;19428;49.024;8.366;2022-09-24T08:28:08;14.50;99.90
33067;DHT22;19428;49.024;8.366;2022-09-24T08:30:37;14.70;99.90
33067;DHT22;19428;49.024;8.366;2022-09-24T08:33:04;15.00;99.90
33067;DHT22;19428;49.024;8.366;2022-09-24T08:35:35;15.10;99.90
33067;DHT22;19428;49.024;8.366;2022-09-24T08:38:01;15.30;99.90
33067;DHT22;19428;49.024;8.366;2022-09-24T08:40:30;15.20;99.90
33067;DHT22;19428;49.024;8.366;2022-09-24T08:43:04;15.30;99.90
33067;DHT22;19428;49.024;8.366;2022-09-24T08:45:40;15.40;99.90
33067;DHT22;19428;49.024;8.366;2022-09-24T08:48:29;15.40;99.90
33067;DHT22;19428;49.024;8.366;2022-09-24T08:51:00;15.20;99.90
33067;DHT22;19428;49.024;8.366;2022-09-24T08:53:54;15.20;99.90
33067;DHT22;19428;49.024;8.366;2022-09-24T08:56:28;15.00;99.90
33067;DHT22;19428;49.024;8.366;2022-09-24T08:58:58;14.90;99.90
33067;DHT22;19428;49.024;8.366;2022-09-24T09:01:35;14.80;99.90
33067;DHT22;19428;49.024;8.366;2022-09-24T09:04:20;14.90;99.90
33067;DHT22;19428;49.024;8.366;2022-09-24T09:09:19;14.80;99.90
33067;DHT22;19428;49.024;8.366;2022-09-24T09:11:58;14.80;99.90
33067;DHT22;19428;49.024;8.366;2022-09-24T09:14:40;15.00;99.90
33067;DHT22;19428;49.024;8.366;2022-09-24T09:20:05;15.30;99.90
33067;DHT22;19428;49.024;8.366;2022-09-24T09:22:38;15.30;99.90
33067;DHT22;19428;49.024;8.366;2022-09-24T09:28:00;15.70;99.90
33067;DHT22;19428;49.024;8.366;2022-09-24T09:30:32;15.80;99.90
33067;DHT22;19428;49.024;8.366;2022-09-24T09:36:15;15.70;99.90
33067;DHT22;19428;49.024;8.366;2022-09-24T09:41:40;15.40;99.90
33067;DHT22;19428;49.024;8.366;2022-09-24T09:44:21;15.50;99.90
33067;DHT22;19428;49.024;8.366;2022-09-24T09:46:55;15.50;99.90
33067;DHT22;19428;49.024;8.366;2022-09-24T09:49:23;15.50;99.90
33067;DHT22;19428;49.024;8.366;2022-09-24T09:51:55;15.60;99.90
33067;DHT22;19428;49.024;8.366;2022-09-24T09:54:35;15.50;99.90
33067;DHT22;19428;49.024;8.366;2022-09-24T09:57:01;15.40;99.90
33067;DHT22;19428;49.024;8.366;2022-09-24T09:59:28;15.40;99.90
33067;DHT22;19428;49.024;8.366;2022-09-24T10:01:55;15.20;99.90
33067;DHT22;19428;49.024;8.366;2022-09-24T10:07:16;15.30;99.90
33067;DHT22;19428;49.024;8.366;2022-09-24T10:09:43;15.30;99.90
33067;DHT22;19428;49.024;8.366;2022-09-24T10:12:17;15.30;99.90
33067;DHT22;19428;49.024;8.366;2022-09-24T10:14:55;15.50;99.90
33067;DHT22;19428;49.024;8.366;2022-09-24T10:17:21;15.60;99.90
33067;DHT22;19428;49.024;8.366;2022-09-24T10:19:48;15.70;99.90
33067;DHT22;19428;49.024;8.366;2022-09-24T10:22:25;15.70;99.90
33067;DHT22;19428;49.024;8.366;2022-09-24T10:24:51;15.80;99.90
33067;DHT22;19428;49.024;8.366;2022-09-24T10:27:40;16.10;99.90
33067;DHT22;19428;49.024;8.366;2022-09-24T10:30:16;15.90;99.90
33067;DHT22;19428;49.024;8.366;2022-09-24T10:33:01;15.70;99.90
33067;DHT22;19428;49.024;8.366;2022-09-24T10:37:57;15.70;99.90
33067;DHT22;19428;49.024;8.366;2022-09-24T10:40:26;15.70;99.90
33067;DHT22;19428;49.024;8.366;2022-09-24T10:45:48;15.70;99.90
33067;DHT22;19428;49.024;8.366;2022-09-24T10:56:40;15.80;99.90
33067;DHT22;19428;49.024;8.366;2022-09-24T11:04:58;15.90;99.90
33067;DHT22;19428;49.024;8.366;2022-09-24T11:13:06;15.90;99.90
33067;DHT22;19428;49.024;8.366;2022-09-24T11:26:26;16.60;99.90
33067;DHT22;19428;49.024;8.366;2022-09-24T11:32:05;16.70;99.90
33067;DHT22;19428;49.024;8.366;2022-09-24T11:37:59;16.50;99.90
33067;DHT22;19428;49.024;8.366;2022-09-24T11:50:13;16.60;99.90
33067;DHT22;19428;49.024;8.366;2022-09-24T11:52:51;16.90;99.90
33067;DHT22;19428;49.024;8.366;2022-09-24T11:55:46;16.80;99.90
33067;DHT22;19428;49.024;8.366;2022-09-24T11:58:23;17.00;99.90
33067;DHT22;19428;49.024;8.366;2022-09-24T12:01:17;17.00;99.90
33067;DHT22;19428;49.024;8.366;2022-09-24T12:03:56;17.00;99.90
33067;DHT22;19428;49.024;8.366;2022-09-24T12:06:59;17.60;99.90
33067;DHT22;19428;49.024;8.366;2022-09-24T12:09:37;18.00;99.90
33067;DHT22;19428;49.024;8.366;2022-09-24T12:12:13;17.40;99.90
33067;DHT22;19428;49.024;8.366;2022-09-24T12:20:29;17.80;99.90
33067;DHT22;19428;49.024;8.366;2022-09-24T12:23:03;18.10;99.90
33067;DHT22;19428;49.024;8.366;2022-09-24T12:25:37;18.10;99.90
33067;DHT22;19428;49.024;8.366;2022-09-24T12:28:04;18.30;99.90
33067;DHT22;19428;49.024;8.366;2022-09-24T12:30:46;18.00;99.90
33067;DHT22;19428;49.024;8.366;2022-09-24T12:33:38;18.20;99.90
33067;DHT22;19428;49.024;8.366;2022-09-24T12:38:48;18.90;99.90
33067;DHT22;19428;49.024;8.366;2022-09-24T12:41:34;18.50;99.90
33067;DHT22;19428;49.024;8.366;2022-09-24T12:49:16;18.50;99.90
33067;DHT22;19428;49.024;8.366;2022-09-24T12:51:42;18.40;99.90
33067;DHT22;19428;49.024;8.366;2022-09-24T12:54:28;18.30;99.90
33067;DHT22;19428;49.024;8.366;2022-09-24T13:02:56;18.80;99.90
33067;DHT22;19428;49.024;8.366;2022-09-24T13:07:57;19.20;99.90
33067;DHT22;19428;49.024;8.366;2022-09-24T13:10:25;19.10;99.90
33067;DHT22;19428;49.024;8.366;2022-09-24T13:12:51;20.00;99.90
33067;DHT22;19428;49.024;8.366;2022-09-24T13:15:40;20.10;99.90
33067;DHT22;19428;49.024;8.366;2022-09-24T13:20:37;20.20;99.90
33067;DHT22;19428;49.024;8.366;2022-09-24T13:23:14;19.70;99.90
33067;DHT22;19428;49.024;8.366;2022-09-24T13:28:36;20.50;99.90
33067;DHT22;19428;49.024;8.366;2022-09-24T13:33:57;21.20;99.90
33067;DHT22;19428;49.024;8.366;2022-09-24T13:39:25;20.40;99.90
33067;DHT22;19428;49.024;8.366;2022-09-24T13:42:16;20.20;99.90
33067;DHT22;19428;49.024;8.366;2022-09-24T13:44:51;19.80;99.90
33067;DHT22;19428;49.024;8.366;2022-09-24T13:47:40;19.70;99.90
33067;DHT22;19428;49.024;8.366;2022-09-24T13:50:29;19.50;99.90
33067;DHT22;19428;49.024;8.366;2022-09-24T13:53:32;19.30;99.90
33067;DHT22;19428;49.024;8.366;2022-09-24T13:56:10;19.20;99.90
33067;DHT22;19428;49.024;8.366;2022-09-24T13:58:37;19.40;99.90
33067;DHT22;19428;49.024;8.366;2022-09-24T14:01:10;19.50;99.90
33067;DHT22;19428;49.024;8.366;2022-09-24T14:03:36;19.60;99.90
33067;DHT22;19428;49.024;8.366;2022-09-24T14:06:11;19.70;99.90
33067;DHT22;19428;49.024;8.366;2022-09-24T14:08:41;19.70;99.90
33067;DHT22;19428;49.024;8.366;2022-09-24T14:11:19;19.50;99.90
33067;DHT22;19428;49.024;8.366;2022-09-24T14:13:45;19.90;99.90
33067;DHT22;19428;49.024;8.366;2022-09-24T14:16:17;19.80;99.90
33067;DHT22;19428;49.024;8.366;2022-09-24T14:18:43;19.50;99.90
33067;DHT22;19428;49.024;8.366;2022-09-24T14:24:00;19.10;99.90
33067;DHT22;19428;49.024;8.366;2022-09-24T14:29:05;19.00;99.90
33067;DHT22;19428;49.024;8.366;2022-09-24T14:31:40;18.90;99.90
33067;DHT22;19428;49.024;8.366;2022-09-24T14:34:06;19.00;99.90
33067;DHT22;19428;49.024;8.366;2022-09-24T14:36:34;19.00;99.90
33067;DHT22;19428;49.024;8.366;2022-09-24T14:39:04;19.10;99.90
33067;DHT22;19428;49.024;8.366;2022-09-24T14:41:34;19.20;99.90
33067;DHT22;19428;49.024;8.366;2022-09-24T14:44:06;19.20;99.90
33067;DHT22;19428;49.024;8.366;2022-09-24T14:46:43;19.00;99.90
33067;DHT22;19428;49.024;8.366;2022-09-24T14:49:42;19.10;99.90
33067;DHT22;19428;49.024;8.366;2022-09-24T14:52:25;19.30;99.90
33067;DHT22;19428;49.024;8.366;2022-09-24T14:55:07;19.30;99.90
33067;DHT22;19428;49.024;8.366;2022-09-24T14:57:36;19.30;99.90
33067;DHT22;19428;49.024;8.366;2022-09-24T15:00:27;19.30;99.90
33067;DHT22;19428;49.024;8.366;2022-09-24T15:03:04;19.20;99.90
33067;DHT22;19428;49.024;8.366;2022-09-24T15:05:30;19.20;99.90
33067;DHT22;19428;49.024;8.366;2022-09-24T15:10:52;19.00;99.90
33067;DHT22;19428;49.024;8.366;2022-09-24T15:13:20;18.90;99.90
33067;DHT22;19428;49.024;8.366;2022-09-24T15:15:48;18.80;99.90
33067;DHT22;19428;49.024;8.366;2022-09-24T15:18:16;18.70;99.90
33067;DHT22;19428;49.024;8.366;2022-09-24T15:20:43;18.50;99.90
33067;DHT22;19428;49.024;8.366;2022-09-24T15:23:10;18.50;99.90
33067;DHT22;19428;49.024;8.366;2022-09-24T15:25:41;18.50;99.90
33067;DHT22;19428;49.024;8.366;2022-09-24T15:28:14;18.50;99.90
33067;DHT22;19428;49.024;8.366;2022-09-24T15:30:41;18.30;99.90
33067;DHT22;19428;49.024;8.366;2022-09-24T15:33:11;18.20;99.90
33067;DHT22;19428;49.024;8.366;2022-09-24T15:35:37;18.10;99.90
33067;DHT22;19428;49.024;8.366;2022-09-24T15:38:03;18.00;99.90
33067;DHT22;19428;49.024;8.366;2022-09-24T15:40:30;18.00;99.90
33067;DHT22;19428;49.024;8.366;2022-09-24T15:42:58;18.20;99.90
33067;DHT22;19428;49.024;8.366;2022-09-24T15:45:24;18.30;99.90
33067;DHT22;19428;49.024;8.366;2022-09-24T15:47:51;18.40;99.90
33067;DHT22;19428;49.024;8.366;2022-09-24T15:50:19;18.40;99.90
33067;DHT22;19428;49.024;8.366;2022-09-24T15:52:49;18.50;99.90
33067;DHT22;19428;49.024;8.366;2022-09-24T15:55:18;18.60;99.90
33067;DHT22;19428;49.024;8.366;2022-09-24T15:57:44;18.60;99.90
33067;DHT22;19428;49.024;8.366;2022-09-24T16:00:16;18.60;99.90
33067;DHT22;19428;49.024;8.366;2022-09-24T16:02:44;18.40;99.90
33067;DHT22;19428;49.024;8.366;2022-09-24T16:05:13;18.20;99.90
33067;DHT22;19428;49.024;8.366;2022-09-24T16:07:39;17.90;99.90
33067;DHT22;19428;49.024;8.366;2022-09-24T16:10:05;17.90;99.90
33067;DHT22;19428;49.024;8.366;2022-09-24T16:12:31;17.70;99.90
33067;DHT22;19428;49.024;8.366;2022-09-24T16:14:56;17.70;99.90
33067;DHT22;19428;49.024;8.366;2022-09-24T16:17:24;17.60;99.90
33067;DHT22;19428;49.024;8.366;2022-09-24T16:19:50;17.60;99.90
33067;DHT22;19428;49.024;8.366;2022-09-24T16:22:15;17.50;99.90
33067;DHT22;19428;49.024;8.366;2022-09-24T16:24:41;17.60;99.90
33067;DHT22;19428;49.024;8.366;2022-09-24T16:27:07;17.60;99.90
33067;DHT22;19428;49.024;8.366;2022-09-24T16:29:32;17.60;99.90
33067;DHT22;19428;49.024;8.366;2022-09-24T16:31:58;17.50;99.90
33067;DHT22;19428;49.024;8.366;2022-09-24T16:34:26;17.50;99.90
33067;DHT22;19428;49.024;8.366;2022-09-24T16:36:52;17.50;99.90
33067;DHT22;19428;49.024;8.366;2022-09-24T16:39:17;17.50;99.90
33067;DHT22;19428;49.024;8.366;2022-09-24T16:41:49;17.40;99.90
33067;DHT22;19428;49.024;8.366;2022-09-24T16:44:15;17.30;99.90
33067;DHT22;19428;49.024;8.366;2022-09-24T16:46:44;17.20;99.90
33067;DHT22;19428;49.024;8.366;2022-09-24T16:49:10;17.10;99.90
33067;DHT22;19428;49.024;8.366;2022-09-24T16:51:37;17.10;99.90
33067;DHT22;19428;49.024;8.366;2022-09-24T16:54:03;17.20;99.90
33067;DHT22;19428;49.024;8.366;2022-09-24T16:56:40;17.20;99.90
33067;DHT22;19428;49.024;8.366;2022-09-24T16:59:08;17.00;99.90
33067;DHT22;19428;49.024;8.366;2022-09-24T17:01:34;17.00;99.90
33067;DHT22;19428;49.024;8.366;2022-09-24T17:04:00;17.00;99.90
33067;DHT22;19428;49.024;8.366;2022-09-24T17:06:29;17.10;99.90
33067;DHT22;19428;49.024;8.366;2022-09-24T17:08:55;17.10;99.90
33067;DHT22;19428;49.024;8.366;2022-09-24T17:11:40;17.20;99.90
33067;DHT22;19428;49.024;8.366;2022-09-24T17:14:09;17.10;99.90
33067;DHT22;19428;49.024;8.366;2022-09-24T17:16:45;17.10;99.90
33067;DHT22;19428;49.024;8.366;2022-09-24T17:19:11;17.00;99.90
33067;DHT22;19428;49.024;8.366;2022-09-24T17:21:38;17.00;99.90
33067;DHT22;19428;49.024;8.366;2022-09-24T17:24:05;17.00;99.90
33067;DHT22;19428;49.024;8.366;2022-09-24T17:26:31;17.00;99.90
33067;DHT22;19428;49.024;8.366;2022-09-24T17:28:56;16.90;99.90
33067;DHT22;19428;49.024;8.366;2022-09-24T17:31:23;16.80;99.90
33067;DHT22;19428;49.024;8.366;2022-09-24T17:34:06;16.80;99.90
33067;DHT22;19428;49.024;8.366;2022-09-24T17:36:35;16.80;99.90
33067;DHT22;19428;49.024;8.366;2022-09-24T17:39:02;16.80;99.90
33067;DHT22;19428;49.024;8.366;2022-09-24T17:41:28;16.70;99.90
33067;DHT22;19428;49.024;8.366;2022-09-24T17:43:55;16.60;99.90
33067;DHT22;19428;49.024;8.366;2022-09-24T17:46:26;16.60;99.90
33067;DHT22;19428;49.024;8.366;2022-09-24T17:48:54;16.60;99.90
33067;DHT22;19428;49.024;8.366;2022-09-24T17:51:25;16.50;99.90
33067;DHT22;19428;49.024;8.366;2022-09-24T17:53:53;16.40;99.90
33067;DHT22;19428;49.024;8.366;2022-09-24T17:56:25;16.30;99.90